Terminal Aerodrome Forecast
Issued by NWS

Home | Current Version | Previous Version | Text Only | Print | Product List | Glossary On
Versions: 1 2 3 4 5 6 7 8 9 10 11 12 13 14 15 16 17 18 19 20 21 22 23 24 25 26 27 28 29 30 31 32 33 34 35 36 37 38 39 40
654
FTUS43 KPAH 020405 AAA
TAFOWB
TAF AMD
KOWB 020405Z 0204/0224 26008KT P6SM VCSH SKC
     FM020430 32012G20KT P6SM SCT045
     FM020600 30009KT P6SM FEW150
     FM021400 32004KT P6SM SCT012 BKN120
     FM022100 31009KT P6SM BKN040=

USA.gov is the U.S. government's official web portal to all federal, state and local government web resources and services.